Time;durP1;ratioP1;P1;durP2;ratioP2;P2;SDS_P1;SDS_P2;PMS_P1;PMS_P2;Temp;Humidity;BMP_temperature;BMP_pressure;BME280_temperature;BME280_humidity;BME280_pressure;Samples;Min_cycle;Max_cycle;Signal;HPM_P1;HPM_P2
2021/12/02 00:00:00;;;;;;;8.73;2.08;;;;;;;2.35;96.22;99660.16;1043193;28;20443;-76
2021/12/02 00:00:32;;;;;;;14.98;3.97;;;;;;;2.35;96.95;99665.44;1043321;28;21027;-72
2021/12/02 00:01:03;;;;;;;8.70;1.88;;;;;;;2.36;96.56;99655.72;1040716;28;20432;-76
2021/12/02 00:01:35;;;;;;;15.27;2.92;;;;;;;2.34;96.65;99673.50;1042888;28;20486;-76
2021/12/02 00:02:08;;;;;;;10.80;2.05;;;;;;;2.32;96.78;99665.81;1043041;28;20995;-76
2021/12/02 00:02:44;;;;;;;13.88;2.83;;;;;;;2.35;97.00;99669.88;1042988;28;21047;-76
2021/12/02 00:03:15;;;;;;;16.70;4.05;;;;;;;2.37;96.78;99662.59;1043718;28;20466;-76
2021/12/02 00:03:49;;;;;;;10.15;2.60;;;;;;;2.42;96.91;99660.22;1043224;28;20471;-76
2021/12/02 00:04:20;;;;;;;18.02;3.40;;;;;;;2.43;96.67;99665.25;1043537;28;21132;-76
2021/12/02 00:04:52;;;;;;;20.38;3.22;;;;;;;2.45;96.81;99662.44;1043537;28;20463;-76
2021/12/02 00:05:24;;;;;;;18.63;3.60;;;;;;;2.46;96.70;99664.06;1043544;28;20443;-76
2021/12/02 00:05:55;;;;;;;17.30;2.83;;;;;;;2.46;96.52;99666.69;1043277;28;20466;-76
2021/12/02 00:06:27;;;;;;;11.43;2.80;;;;;;;2.46;96.90;99666.69;1043377;28;20439;-76
2021/12/02 00:06:59;;;;;;;15.45;3.00;;;;;;;2.47;97.01;99663.09;1042835;28;20463;-76
2021/12/02 00:07:30;;;;;;;19.67;3.38;;;;;;;2.48;97.00;99667.34;1044535;28;20975;-72
2021/12/02 00:08:02;;;;;;;11.05;2.90;;;;;;;2.49;97.05;99663.72;1044114;28;20451;-72
2021/12/02 00:08:36;;;;;;;16.30;4.13;;;;;;;2.51;97.28;99672.22;1044117;28;20443;-76
2021/12/02 00:09:07;;;;;;;16.85;2.70;;;;;;;2.50;97.15;99665.34;1043656;28;20459;-76
2021/12/02 00:09:39;;;;;;;14.05;3.25;;;;;;;2.49;96.95;99671.59;1036975;28;20436;-76
2021/12/02 00:10:10;;;;;;;21.45;2.97;;;;;;;2.52;97.43;99671.22;1040570;28;20468;-73
2021/12/02 00:10:42;;;;;;;13.50;2.95;;;;;;;2.54;97.27;99669.19;1040046;28;20992;-73
2021/12/02 00:11:14;;;;;;;12.95;2.78;;;;;;;2.57;97.18;99663.56;1033937;28;20522;-73
2021/12/02 00:11:46;;;;;;;21.55;3.67;;;;;;;2.59;97.33;99668.63;1034563;28;20574;-72
2021/12/02 00:12:17;;;;;;;19.35;4.95;;;;;;;2.60;96.64;99667.59;1035778;28;20441;-72
2021/12/02 00:12:52;;;;;;;21.13;3.80;;;;;;;2.61;96.67;99675.28;1038662;28;20472;-72
2021/12/02 00:13:26;;;;;;;16.50;2.85;;;;;;;2.64;97.01;99674.91;1038850;28;20471;-72
2021/12/02 00:14:00;;;;;;;19.17;3.60;;;;;;;2.64;96.85;99663.59;1038723;28;20466;-73
2021/12/02 00:14:46;;;;;;;16.20;4.05;;;;;;;2.65;97.15;99671.28;1035208;28;20448;-73
2021/12/02 00:15:22;;;;;;;19.23;2.75;;;;;;;2.66;96.99;99672.91;1034272;28;20875;-72
2021/12/02 00:16:04;;;;;;;18.25;3.15;;;;;;;2.67;97.23;99668.44;1034677;28;20835;-73
2021/12/02 00:17:33;;;;;;;10.40;3.05;;;;;;;2.70;97.35;99663.63;1039637;28;20443;-72
2021/12/02 00:21:06;;;;;;;17.30;2.95;;;;;;;2.75;97.25;99666.50;1039524;28;20794;-76
2021/12/02 00:21:42;;;;;;;17.48;2.40;;;;;;;2.77;97.39;99675.00;1039811;28;20328;-76
2021/12/02 00:22:14;;;;;;;14.98;3.00;;;;;;;2.77;97.22;99674.19;1039474;28;20419;-76
2021/12/02 00:23:01;;;;;;;9.82;2.72;;;;;;;2.77;97.32;99679.44;1038769;28;20463;-76
2021/12/02 00:23:52;;;;;;;20.13;3.22;;;;;;;2.74;97.38;99680.66;1039121;28;20455;-76
2021/12/02 00:24:24;;;;;;;18.77;2.60;;;;;;;2.76;97.16;99683.91;1035475;28;20452;-76
2021/12/02 00:25:00;;;;;;;11.80;2.55;;;;;;;2.77;97.34;99685.53;1034723;28;20050;-76
2021/12/02 00:25:32;;;;;;;19.80;2.92;;;;;;;2.78;97.18;99686.31;1035010;28;20440;-76
2021/12/02 00:26:09;;;;;;;13.55;2.63;;;;;;;2.79;97.11;99683.50;1036397;28;20490;-76
2021/12/02 00:26:40;;;;;;;17.45;3.33;;;;;;;2.77;97.23;99685.53;1040702;28;20472;-76
2021/12/02 00:27:15;;;;;;;12.13;2.70;;;;;;;2.76;96.99;99689.16;1041854;28;20463;-72
2021/12/02 00:27:47;;;;;;;15.30;3.35;;;;;;;2.78;96.61;99691.59;1039595;28;20460;-72
2021/12/02 00:28:19;;;;;;;12.93;2.53;;;;;;;2.76;96.79;99691.78;1035124;28;20830;-72
2021/12/02 00:28:53;;;;;;;17.63;3.67;;;;;;;2.74;96.92;99688.53;1034818;28;21001;-72
2021/12/02 00:29:25;;;;;;;21.85;3.97;;;;;;;2.75;96.44;99692.78;1035479;28;20454;-72
2021/12/02 00:29:58;;;;;;;17.80;4.18;;;;;;;2.72;96.74;99687.06;1036091;28;20838;-72
2021/12/02 00:30:30;;;;;;;16.98;3.08;;;;;;;2.69;96.56;99698.78;1039218;28;20440;-72
2021/12/02 00:31:02;;;;;;;15.95;2.95;;;;;;;2.67;96.62;99694.75;1034766;28;20468;-73
2021/12/02 00:31:36;;;;;;;8.45;2.30;;;;;;;2.66;96.50;99698.38;1036240;28;20519;-76
2021/12/02 00:32:09;;;;;;;16.42;2.90;;;;;;;2.62;96.76;99700.56;1039725;28;20464;-73
2021/12/02 00:32:42;;;;;;;11.18;2.88;;;;;;;2.60;96.54;99697.34;1039002;28;20559;-72
2021/12/02 00:33:15;;;;;;;18.90;2.90;;;;;;;2.58;96.12;99691.47;1039071;28;20862;-72
2021/12/02 00:33:51;;;;;;;16.92;3.50;;;;;;;2.54;96.54;99694.66;1039539;28;20578;-73
2021/12/02 00:34:23;;;;;;;15.68;2.58;;;;;;;2.49;96.87;99690.00;1038953;28;20436;-72
2021/12/02 00:34:56;;;;;;;17.77;3.38;;;;;;;2.48;96.60;99696.25;1030720;28;20441;-72
2021/12/02 00:35:28;;;;;;;10.55;2.88;;;;;;;2.49;96.56;99700.50;1030718;28;20465;-73
2021/12/02 00:35:59;;;;;;;17.08;3.13;;;;;;;2.51;96.54;99692.44;1032043;28;20467;-72
2021/12/02 00:36:33;;;;;;;21.92;3.00;;;;;;;2.51;96.69;99692.44;1035514;28;20469;-73
2021/12/02 00:37:05;;;;;;;18.52;3.30;;;;;;;2.49;96.74;99697.88;1038584;28;20866;-72
2021/12/02 00:37:37;;;;;;;13.27;3.50;;;;;;;2.47;96.83;99705.16;1039028;28;20468;-72
2021/12/02 00:38:09;;;;;;;18.83;3.65;;;;;;;2.48;96.78;99704.13;1038017;28;20566;-72
2021/12/02 00:38:46;;;;;;;19.13;3.47;;;;;;;2.47;96.90;99695.44;1038882;28;20483;-72
2021/12/02 00:39:19;;;;;;;16.58;3.10;;;;;;;2.49;96.97;99697.88;1038894;28;20459;-72
2021/12/02 00:39:52;;;;;;;20.10;2.90;;;;;;;2.49;97.21;99703.13;1039217;28;20464;-73
2021/12/02 00:40:23;;;;;;;15.70;2.85;;;;;;;2.50;97.24;99699.50;1038875;28;20468;-72
2021/12/02 00:40:55;;;;;;;16.38;3.70;;;;;;;2.49;96.88;99697.88;1034562;28;20469;-72
2021/12/02 00:41:28;;;;;;;24.60;3.95;;;;;;;2.51;97.17;99709.00;1035172;28;20511;-72
2021/12/02 00:41:59;;;;;;;14.68;3.65;;;;;;;2.53;97.11;99699.13;1035767;28;20455;-72
2021/12/02 00:42:34;;;;;;;17.70;3.38;;;;;;;2.54;97.08;99700.75;1038745;28;20472;-72
2021/12/02 00:43:05;;;;;;;17.27;2.88;;;;;;;2.55;97.03;99702.38;1039005;28;20475;-72
2021/12/02 00:43:38;;;;;;;19.15;3.22;;;;;;;2.58;97.12;99696.72;1035041;28;20465;-73
2021/12/02 00:44:11;;;;;;;18.58;3.33;;;;;;;2.58;96.77;99704.59;1034833;28;20471;-71
2021/12/02 00:44:43;;;;;;;16.83;3.35;;;;;;;2.61;96.61;99696.31;1035752;28;20472;-72
2021/12/02 00:45:15;;;;;;;16.15;3.63;;;;;;;2.66;96.66;99708.88;1040217;28;20838;-72
2021/12/02 00:45:46;;;;;;;16.02;3.35;;;;;;;2.67;96.51;99708.69;1041919;28;20471;-72
2021/12/02 00:46:20;;;;;;;16.10;3.63;;;;;;;2.69;96.58;99704.06;1039332;28;20809;-72
2021/12/02 00:46:52;;;;;;;12.00;2.38;;;;;;;2.70;96.51;99700.41;1039379;28;20824;-73
2021/12/02 00:47:23;;;;;;;22.83;4.05;;;;;;;2.71;96.67;99709.94;1039068;28;20460;-72
2021/12/02 00:47:55;;;;;;;15.52;3.33;;;;;;;2.73;96.66;99700.03;1039290;28;20645;-73
2021/12/02 00:48:27;;;;;;;19.95;4.72;;;;;;;2.74;96.69;99706.94;1039391;28;20460;-73
2021/12/02 00:49:02;;;;;;;21.40;3.15;;;;;;;2.76;96.70;99704.94;1038934;28;20806;-73
2021/12/02 00:49:34;;;;;;;18.92;3.17;;;;;;;2.76;96.44;99704.94;1038861;28;20467;-72
2021/12/02 00:50:06;;;;;;;17.15;2.83;;;;;;;2.80;96.40;99710.59;1039348;28;20432;-72
2021/12/02 00:50:40;;;;;;;16.50;3.28;;;;;;;2.79;96.25;99712.44;1036776;28;20456;-72
2021/12/02 00:51:12;;;;;;;13.88;2.55;;;;;;;2.82;96.23;99713.84;1039164;28;20443;-72
2021/12/02 00:51:53;;;;;;;14.18;2.53;;;;;;;2.84;96.08;99705.78;1038936;28;20478;-72
2021/12/02 00:52:27;;;;;;;11.63;2.38;;;;;;;2.84;96.38;99711.03;1034161;28;20449;-72
2021/12/02 00:53:00;;;;;;;21.35;4.05;;;;;;;2.87;96.42;99711.44;1034840;28;20456;-72
2021/12/02 00:53:33;;;;;;;16.50;2.95;;;;;;;2.91;95.78;99717.13;1035237;28;20531;-72
2021/12/02 00:54:08;;;;;;;11.52;2.83;;;;;;;2.88;96.15;99713.06;1033163;28;20445;-72
2021/12/02 00:54:42;;;;;;;11.30;2.63;;;;;;;2.90;95.87;99711.06;1038689;28;20460;-72
2021/12/02 00:55:14;;;;;;;17.63;3.30;;;;;;;2.88;96.29;99712.25;1034880;28;20428;-72
2021/12/02 00:55:46;;;;;;;13.57;3.42;;;;;;;2.88;96.48;99713.06;1032307;28;20848;-72
2021/12/02 00:56:22;;;;;;;22.77;2.92;;;;;;;2.90;96.21;99715.50;1034979;28;20455;-72
2021/12/02 00:56:54;;;;;;;14.77;3.08;;;;;;;2.88;96.58;99713.06;1035775;28;20464;-72
2021/12/02 00:57:27;;;;;;;18.48;3.35;;;;;;;2.88;96.54;99712.25;1039146;28;20459;-72
2021/12/02 00:57:59;;;;;;;19.52;3.78;;;;;;;2.87;96.57;99710.63;1039316;28;20452;-72
2021/12/02 00:58:32;;;;;;;11.90;3.30;;;;;;;2.88;96.42;99712.25;1038911;28;20464;-73
2021/12/02 00:59:04;;;;;;;16.15;2.97;;;;;;;2.92;96.46;99716.13;1035089;28;20465;-72
2021/12/02 00:59:35;;;;;;;10.35;2.38;;;;;;;2.93;96.73;99710.66;1031948;28;20998;-72
2021/12/02 01:00:08;;;;;;;14.18;2.83;;;;;;;2.93;96.54;99710.66;1031580;28;20476;-76
2021/12/02 01:00:40;;;;;;;13.98;2.85;;;;;;;2.93;96.23;99715.13;1035854;28;20463;-72
2021/12/02 01:01:12;;;;;;;20.35;3.25;;;;;;;2.92;96.46;99714.31;1035706;28;21009;-72
2021/12/02 01:01:44;;;;;;;9.48;3.03;;;;;;;2.93;96.20;99717.75;1039555;28;20472;-72
2021/12/02 01:02:16;;;;;;;17.60;3.30;;;;;;;2.93;96.51;99717.75;1043046;28;20455;-72
2021/12/02 01:02:49;;;;;;;16.50;2.60;;;;;;;2.93;96.75;99720.38;1043049;28;20915;-72
2021/12/02 01:03:21;;;;;;;12.05;2.47;;;;;;;2.95;96.66;99718.38;1034781;28;20527;-72
2021/12/02 01:03:57;;;;;;;13.80;2.75;;;;;;;2.95;96.35;99718.38;1034658;28;21075;-72
2021/12/02 01:04:29;;;;;;;9.25;2.28;;;;;;;2.94;96.77;99717.56;1036137;28;20924;-72
2021/12/02 01:05:00;;;;;;;10.80;3.00;;;;;;;2.94;96.94;99717.56;1040604;28;20805;-73
2021/12/02 01:05:32;;;;;;;17.85;2.58;;;;;;;2.95;97.08;99718.38;1042992;28;20474;-72
2021/12/02 01:06:05;;;;;;;17.75;2.97;;;;;;;2.93;96.98;99718.56;1043095;28;20747;-72
2021/12/02 01:06:38;;;;;;;10.82;2.17;;;;;;;2.94;97.09;99722.00;1043162;28;20454;-72
2021/12/02 01:07:09;;;;;;;16.55;3.10;;;;;;;2.93;96.84;99717.75;1038637;28;20450;-72
2021/12/02 01:07:42;;;;;;;15.07;2.47;;;;;;;2.92;97.05;99716.94;1038630;28;20472;-73
2021/12/02 01:08:14;;;;;;;13.65;2.35;;;;;;;2.91;97.00;99717.13;1035772;28;20444;-72
2021/12/02 01:08:45;;;;;;;15.35;2.88;;;;;;;2.92;97.02;99710.88;1039315;28;20982;-72
2021/12/02 01:09:17;;;;;;;12.80;2.58;;;;;;;2.91;97.13;99712.69;1042738;28;20459;-72
2021/12/02 01:09:49;;;;;;;8.73;2.58;;;;;;;2.89;97.62;99713.88;1043362;28;20450;-73
2021/12/02 01:10:21;;;;;;;10.63;2.15;;;;;;;2.87;97.40;99714.09;1043086;28;20845;-72
2021/12/02 01:10:53;;;;;;;11.73;2.72;;;;;;;2.89;97.55;99713.88;1043293;28;20984;-72
2021/12/02 01:11:24;;;;;;;14.77;2.58;;;;;;;2.86;97.73;99714.28;1043031;28;20470;-72
2021/12/02 01:11:57;;;;;;;11.77;2.28;;;;;;;2.84;97.21;99717.09;1042944;28;20451;-72
2021/12/02 01:12:29;;;;;;;6.53;1.92;;;;;;;2.84;97.59;99711.03;1042844;28;20470;-72
2021/12/02 01:13:03;;;;;;;16.65;2.30;;;;;;;2.84;97.72;99721.56;1043083;28;20538;-73
2021/12/02 01:13:35;;;;;;;11.30;2.78;;;;;;;2.81;97.67;99720.13;1039593;28;20434;-73
2021/12/02 01:14:08;;;;;;;13.27;3.30;;;;;;;2.81;97.76;99711.41;1037752;28;20467;-73
2021/12/02 01:14:39;;;;;;;7.90;2.58;;;;;;;2.82;98.03;99719.13;1035738;28;20436;-72
2021/12/02 01:15:11;;;;;;;10.52;2.88;;;;;;;2.82;97.78;99715.69;1035436;28;20527;-73
2021/12/02 01:15:46;;;;;;;11.63;2.38;;;;;;;2.81;97.62;99719.31;1039829;28;20475;-74
2021/12/02 01:16:20;;;;;;;11.75;3.00;;;;;;;2.80;97.95;99721.13;1038663;28;20993;-72
2021/12/02 01:16:52;;;;;;;11.98;2.45;;;;;;;2.79;98.47;99719.50;1034868;28;20520;-72
2021/12/02 01:17:24;;;;;;;18.17;2.78;;;;;;;2.79;98.35;99717.69;1034989;28;20491;-72
2021/12/02 01:17:55;;;;;;;14.07;3.22;;;;;;;2.79;98.47;99719.50;1035481;28;20464;-72
2021/12/02 01:18:27;;;;;;;14.55;2.78;;;;;;;2.79;98.16;99717.69;1039260;28;20466;-72
2021/12/02 01:18:58;;;;;;;8.60;2.10;;;;;;;2.78;98.80;99713.44;1039590;28;20467;-72
2021/12/02 01:19:30;;;;;;;8.95;2.03;;;;;;;2.78;98.50;99713.44;1042601;28;20470;-72
2021/12/02 01:20:03;;;;;;;14.60;2.83;;;;;;;2.77;98.80;99722.31;1042841;28;20475;-72
2021/12/02 01:20:35;;;;;;;11.40;1.85;;;;;;;2.75;99.16;99721.72;1042585;28;20447;-72
2021/12/02 01:21:07;;;;;;;8.65;2.25;;;;;;;2.72;98.79;99719.44;1042660;28;21535;-72
2021/12/02 01:21:42;;;;;;;12.55;2.47;;;;;;;2.71;98.60;99711.75;1042771;28;20455;-71
2021/12/02 01:22:15;;;;;;;10.05;2.63;;;;;;;2.67;98.39;99721.84;1042459;28;20988;-72
2021/12/02 01:22:48;;;;;;;14.15;2.15;;;;;;;2.63;98.61;99717.97;1038969;28;20468;-72
2021/12/02 01:23:21;;;;;;;13.27;2.63;;;;;;;2.59;98.42;99729.88;1034255;28;21123;-72
2021/12/02 01:24:01;;;;;;;8.57;2.03;;;;;;;2.57;98.54;99728.44;1034504;28;20444;-72
2021/12/02 01:24:33;;;;;;;6.32;1.88;;;;;;;2.55;98.61;99725.19;1035082;28;20448;-72
2021/12/02 01:25:06;;;;;;;8.57;2.53;;;;;;;2.53;98.45;99720.13;1036128;28;20038;-72
2021/12/02 01:25:39;;;;;;;10.95;2.00;;;;;;;2.49;98.66;99716.28;1034335;28;20436;-72
2021/12/02 01:26:16;;;;;;;9.77;1.90;;;;;;;2.42;98.97;99715.38;1030769;28;20650;-74
2021/12/02 01:26:53;;;;;;;6.70;1.45;;;;;;;2.39;99.04;99713.16;1029812;28;20469;-73
2021/12/02 01:27:25;;;;;;;9.32;2.15;;;;;;;2.38;99.16;99716.78;1032796;28;20460;-73
2021/12/02 01:27:57;;;;;;;9.45;1.77;;;;;;;2.39;99.21;99718.41;1032412;28;20451;-72
2021/12/02 01:28:29;;;;;;;11.85;2.53;;;;;;;2.33;99.20;99724.44;1035992;28;20471;-72
2021/12/02 01:29:02;;;;;;;9.02;1.70;;;;;;;2.30;99.17;99722.19;1035048;28;20942;-72
2021/12/02 01:29:34;;;;;;;10.93;1.67;;;;;;;2.25;99.25;99721.94;1031610;28;20445;-72
2021/12/02 01:30:06;;;;;;;10.95;1.77;;;;;;;2.23;99.07;99718.69;1033824;28;20464;-72
2021/12/02 01:30:38;;;;;;;9.73;2.15;;;;;;;2.18;99.49;99727.94;1027537;28;20474;-72
2021/12/02 01:31:12;;;;;;;11.95;2.33;;;;;;;2.13;99.14;99719.00;1030100;28;20438;-73
2021/12/02 01:31:43;;;;;;;7.70;1.30;;;;;;;2.09;99.49;99723.00;1030568;28;20485;-72
2021/12/02 01:32:15;;;;;;;6.55;1.50;;;;;;;2.08;99.40;99724.81;1027528;28;20457;-72
2021/12/02 01:32:48;;;;;;;9.60;2.13;;;;;;;2.04;99.49;99726.19;1030859;28;20472;-72
2021/12/02 01:33:21;;;;;;;11.98;2.08;;;;;;;2.06;99.66;99726.81;1035418;28;20456;-76
2021/12/02 01:33:52;;;;;;;10.20;2.08;;;;;;;2.10;99.70;99725.44;1039766;28;20471;-76
2021/12/02 01:34:26;;;;;;;8.63;1.85;;;;;;;2.11;99.63;99728.88;1039281;28;20456;-76
2021/12/02 01:34:58;;;;;;;4.75;1.05;;;;;;;2.06;99.94;99729.44;1034708;28;20440;-76
2021/12/02 01:35:32;;;;;;;8.70;2.50;;;;;;;2.02;99.80;99728.22;1034526;28;20466;-76
2021/12/02 01:36:04;;;;;;;6.53;1.40;;;;;;;1.99;100.00;99725.16;1034627;28;20435;-77
2021/12/02 01:36:41;;;;;;;10.80;2.13;;;;;;;1.97;100.00;99725.34;1036048;28;20450;-76
2021/12/02 01:37:15;;;;;;;13.05;2.38;;;;;;;1.95;100.00;99732.59;1039805;28;20444;-73
2021/12/02 01:37:47;;;;;;;12.60;2.10;;;;;;;1.93;100.00;99731.16;1039704;28;20456;-72
2021/12/02 01:38:22;;;;;;;9.18;1.98;;;;;;;1.91;100.00;99735.75;1037629;28;20440;-72
2021/12/02 01:38:53;;;;;;;4.95;2.08;;;;;;;1.87;100.00;99730.06;1035695;28;20453;-73
2021/12/02 01:39:25;;;;;;;9.52;1.65;;;;;;;1.84;100.00;99731.25;1035268;28;20444;-73
2021/12/02 01:40:00;;;;;;;10.10;2.50;;;;;;;1.81;100.00;99725.56;1037179;28;21175;-73
2021/12/02 01:40:34;;;;;;;13.23;2.20;;;;;;;1.80;100.00;99729.19;1036860;28;20982;-76
2021/12/02 01:41:05;;;;;;;11.90;2.10;;;;;;;1.79;100.00;99727.56;1039781;28;20467;-76
2021/12/02 01:41:44;;;;;;;12.57;2.78;;;;;;;1.77;100.00;99740.06;1036560;28;20464;-73
2021/12/02 01:42:24;;;;;;;9.13;2.17;;;;;;;1.74;100.00;99729.94;1036956;28;20815;-72
2021/12/02 01:42:57;;;;;;;14.77;2.83;;;;;;;1.69;100.00;99733.13;1039676;28;20474;-73
2021/12/02 01:43:45;;;;;;;7.63;2.42;;;;;;;1.69;100.00;99732.31;1039414;28;20045;-76
2021/12/02 01:44:21;;;;;;;15.10;2.10;;;;;;;1.69;100.00;99727.88;1035669;28;20461;-76
2021/12/02 01:44:54;;;;;;;8.82;1.98;;;;;;;1.68;100.00;99738.56;1032144;28;20856;-75
2021/12/02 01:45:27;;;;;;;8.73;1.95;;;;;;;1.70;100.00;99736.56;1035308;28;20451;-76
2021/12/02 01:45:59;;;;;;;8.32;1.80;;;;;;;1.66;100.00;99737.94;1035485;28;20461;-72
2021/12/02 01:46:36;;;;;;;9.63;1.70;;;;;;;1.62;100.00;99731.41;1031155;28;20458;-72
2021/12/02 01:47:13;;;;;;;13.57;1.77;;;;;;;1.61;100.00;99732.41;1035230;28;20444;-72
2021/12/02 01:47:48;;;;;;;16.38;1.98;;;;;;;1.54;100.00;99741.03;1037330;28;20480;-72
2021/12/02 01:48:22;;;;;;;8.88;2.47;;;;;;;1.51;100.00;99736.16;1041151;28;20475;-72
2021/12/02 01:49:03;;;;;;;10.98;1.38;;;;;;;1.50;100.00;99739.78;1043437;28;20463;-72
2021/12/02 01:49:40;;;;;;;9.38;2.10;;;;;;;1.51;100.00;99736.16;1043635;28;20908;-72
2021/12/02 01:50:14;;;;;;;12.32;2.33;;;;;;;1.55;100.00;99734.78;1043687;28;20471;-72
2021/12/02 01:50:59;;;;;;;7.20;1.70;;;;;;;1.53;100.00;99734.16;1043978;28;20469;-72
2021/12/02 01:51:38;;;;;;;11.02;2.08;;;;;;;1.53;100.00;99734.16;1039463;28;20809;-72
2021/12/02 01:52:11;;;;;;;11.93;1.88;;;;;;;1.51;100.00;99730.91;1039178;28;20451;-72
2021/12/02 01:52:44;;;;;;;8.77;1.95;;;;;;;1.52;100.00;99727.28;1040553;28;20814;-73
2021/12/02 01:53:16;;;;;;;14.07;1.85;;;;;;;1.50;100.00;99726.66;1037349;28;20822;-72
2021/12/02 01:53:50;;;;;;;7.82;2.00;;;;;;;1.53;100.00;99728.09;1043756;28;20466;-72
2021/12/02 01:54:24;;;;;;;9.90;2.10;;;;;;;1.56;100.00;99722.47;1043808;28;20837;-72
2021/12/02 01:55:03;;;;;;;12.68;1.92;;;;;;;1.55;100.00;99726.09;1035607;28;20476;-73
2021/12/02 01:55:42;;;;;;;9.85;2.00;;;;;;;1.55;100.00;99729.53;1035684;28;20461;-72
2021/12/02 01:56:15;;;;;;;16.08;2.42;;;;;;;1.54;100.00;99740.22;1035824;28;20457;-72
2021/12/02 01:57:04;;;;;;;7.60;2.10;;;;;;;1.53;100.00;99723.66;1038258;28;20465;-72
2021/12/02 01:57:43;;;;;;;12.68;1.95;;;;;;;1.55;100.00;99726.91;1040363;28;20985;-72
2021/12/02 01:58:15;;;;;;;9.38;1.83;;;;;;;1.57;100.00;99726.72;1035172;28;20465;-72
2021/12/02 01:58:51;;;;;;;6.70;1.60;;;;;;;1.57;100.00;99721.47;1035833;28;20475;-72
2021/12/02 01:59:25;;;;;;;8.57;1.65;;;;;;;1.58;100.00;99720.47;1035610;28;20437;-72
2021/12/02 02:00:17;;;;;;;6.55;1.45;;;;;;;1.55;100.00;99724.28;1028563;28;20450;-72
2021/12/02 02:00:50;;;;;;;7.68;1.63;;;;;;;1.56;100.00;99719.84;1034199;28;20483;-72
2021/12/02 02:01:25;;;;;;;9.95;1.88;;;;;;;1.55;100.00;99720.84;1031647;28;20453;-72
2021/12/02 02:01:57;;;;;;;6.68;1.88;;;;;;;1.54;100.00;99721.84;1039092;28;20459;-72
2021/12/02 02:02:30;;;;;;;8.20;1.90;;;;;;;1.51;100.00;99724.84;1039430;28;20451;-72
2021/12/02 02:03:02;;;;;;;10.65;1.73;;;;;;;1.48;100.00;99719.97;1039142;28;21222;-72
2021/12/02 02:03:34;;;;;;;6.07;1.02;;;;;;;1.45;100.00;99726.41;1039602;28;20438;-72
2021/12/02 02:04:06;;;;;;;5.82;1.90;;;;;;;1.46;100.00;99722.78;1039346;28;20460;-72
2021/12/02 02:04:38;;;;;;;14.32;1.90;;;;;;;1.43;100.00;99717.91;1039517;28;20447;-72
2021/12/02 02:05:12;;;;;;;8.73;2.03;;;;;;;1.43;100.00;99717.91;1035438;28;20460;-72
2021/12/02 02:05:50;;;;;;;6.85;1.40;;;;;;;1.41;100.00;99714.66;1033904;28;20807;-72
2021/12/02 02:06:28;;;;;;;7.50;1.33;;;;;;;1.43;100.00;99710.03;1033091;28;20457;-72
2021/12/02 02:07:06;;;;;;;6.45;1.27;;;;;;;1.47;100.00;99702.59;1038880;28;20436;-75
2021/12/02 02:07:49;;;;;;;9.25;2.08;;;;;;;1.47;100.00;99708.66;1035878;28;20439;-72
2021/12/02 02:08:21;;;;;;;7.32;1.42;;;;;;;1.45;100.00;99713.28;1039468;28;20049;-72
2021/12/02 02:08:55;;;;;;;5.05;1.15;;;;;;;1.44;100.00;99709.03;1035219;28;20550;-72
2021/12/02 02:09:29;;;;;;;11.57;2.03;;;;;;;1.43;100.00;99712.66;1037753;28;20994;-73
2021/12/02 02:10:01;;;;;;;6.90;1.55;;;;;;;1.44;100.00;99714.28;1035411;28;20823;-72
2021/12/02 02:10:41;;;;;;;8.07;1.30;;;;;;;1.39;100.00;99719.28;1042431;28;20547;-76
2021/12/02 02:11:12;;;;;;;6.68;1.75;;;;;;;1.37;100.00;99723.06;1039658;28;20472;-76
2021/12/02 02:11:44;;;;;;;12.57;1.90;;;;;;;1.36;100.00;99726.69;1041073;28;20846;-76
2021/12/02 02:12:15;;;;;;;11.85;2.03;;;;;;;1.34;100.00;99729.47;1043199;28;20573;-77
2021/12/02 02:12:47;;;;;;;6.50;1.38;;;;;;;1.32;100.00;99725.41;1043866;28;20443;-76
2021/12/02 02:13:20;;;;;;;8.32;1.60;;;;;;;1.31;100.00;99735.09;1041326;28;20814;-77
2021/12/02 02:13:56;;;;;;;14.15;1.38;;;;;;;1.32;100.00;99728.03;1040520;28;20464;-72
2021/12/02 02:14:27;;;;;;;9.98;1.67;;;;;;;1.35;100.00;99731.09;1040250;28;20459;-76
2021/12/02 02:15:00;;;;;;;8.00;1.83;;;;;;;1.35;100.00;99731.09;1039704;28;20451;-76
2021/12/02 02:15:32;;;;;;;4.78;1.38;;;;;;;1.35;100.00;99728.50;1041775;28;20468;-76
2021/12/02 02:16:04;;;;;;;5.07;1.63;;;;;;;1.35;100.00;99725.88;1047012;28;20595;-76
2021/12/02 02:16:37;;;;;;;5.93;1.52;;;;;;;1.38;100.00;99732.59;1047832;28;20496;-76
2021/12/02 02:17:18;;;;;;;3.17;1.70;;;;;;;1.36;100.00;99727.50;1046534;28;20473;-75
2021/12/02 02:18:05;;;;;;;;;;;;;;;1.35;100.00;99731.09;1044366;28;20459;-76
2021/12/02 02:18:38;;;;;;;3.63;0.93;;;;;;;1.35;100.00;99731.09;1043852;28;20283;-76
2021/12/02 02:19:12;;;;;;;6.93;1.00;;;;;;;1.39;100.00;99734.22;1044076;28;20439;-76
2021/12/02 02:19:43;;;;;;;2.83;0.85;;;;;;;1.40;100.00;99735.84;1043244;28;20478;-76
2021/12/02 02:20:15;;;;;;;6.63;1.15;;;;;;;1.40;100.00;99738.47;1043235;28;20544;-76
2021/12/02 02:21:25;;;;;;;1.80;0.75;;;;;;;1.42;100.00;99739.91;1042473;28;20446;-76
2021/12/02 02:21:58;;;;;;;5.07;1.02;;;;;;;1.43;100.00;99733.66;1039381;28;20471;-76
2021/12/02 02:22:29;;;;;;;7.38;1.35;;;;;;;1.44;100.00;99740.53;1039335;28;20467;-76
2021/12/02 02:23:01;;;;;;;4.55;0.93;;;;;;;1.46;100.00;99738.53;1039835;28;20466;-76
2021/12/02 02:23:37;;;;;;;4.40;0.68;;;;;;;1.46;100.00;99733.28;1039248;28;20471;-76
2021/12/02 02:24:13;;;;;;;3.78;0.60;;;;;;;1.48;100.00;99740.97;1039427;28;20865;-76
2021/12/02 02:24:45;;;;;;;2.95;0.95;;;;;;;1.47;100.00;99734.09;1039677;28;20472;-76
2021/12/02 02:25:18;;;;;;;12.73;1.38;;;;;;;1.49;100.00;99743.41;1039556;28;20436;-76
2021/12/02 02:25:50;;;;;;;3.35;1.10;;;;;;;1.51;100.00;99738.78;1035228;28;20479;-76
2021/12/02 02:26:26;;;;;;;5.03;1.40;;;;;;;1.51;100.00;99740.59;1030627;28;20453;-77
2021/12/02 02:26:57;;;;;;;7.15;1.00;;;;;;;1.50;100.00;99739.78;1032437;28;21010;-75
2021/12/02 02:27:29;;;;;;;5.95;1.08;;;;;;;1.50;100.00;99739.78;1032837;28;20441;-76
2021/12/02 02:28:00;;;;;;;6.78;1.02;;;;;;;1.48;100.00;99730.47;1035169;28;20867;-76
2021/12/02 02:28:34;;;;;;;4.15;1.40;;;;;;;1.50;100.00;99736.34;1036318;28;20459;-76
2021/12/02 02:29:07;;;;;;;7.32;1.77;;;;;;;1.52;100.00;99737.78;1039998;28;20456;-72
2021/12/02 02:29:40;;;;;;;2.33;0.80;;;;;;;1.49;100.00;99732.91;1039818;28;20452;-76
2021/12/02 02:30:11;;;;;;;5.20;0.95;;;;;;;1.47;100.00;99729.66;1039146;28;20800;-76
2021/12/02 02:30:43;;;;;;;7.22;0.88;;;;;;;1.48;100.00;99730.47;1039710;28;20452;-76
2021/12/02 02:31:14;;;;;;;5.40;0.93;;;;;;;1.44;100.00;99735.28;1039398;28;20470;-76
2021/12/02 02:31:47;;;;;;;10.27;1.25;;;;;;;1.43;100.00;99743.34;1039984;28;20487;-72
2021/12/02 02:32:25;;;;;;;4.18;0.90;;;;;;;1.45;100.00;99736.91;1039839;28;20456;-71
2021/12/02 02:32:56;;;;;;;5.07;1.27;;;;;;;1.46;100.00;99737.72;1040968;28;20424;-76
2021/12/02 02:33:38;;;;;;;2.67;0.80;;;;;;;1.44;100.00;99734.47;1039132;28;20467;-75
2021/12/02 02:34:11;;;;;;;4.75;1.17;;;;;;;1.44;100.00;99735.28;1039251;28;20571;-76
2021/12/02 02:34:43;;;;;;;3.70;0.65;;;;;;;1.42;100.00;99725.97;1039211;28;20519;-73
2021/12/02 02:35:14;;;;;;;10.80;1.48;;;;;;;1.44;100.00;99730.03;1040118;28;20407;-72
2021/12/02 02:35:47;;;;;;;6.65;0.93;;;;;;;1.45;100.00;99731.66;1039752;28;20566;-72
2021/12/02 02:36:20;;;;;;;3.03;0.60;;;;;;;1.40;100.00;99734.03;1039467;28;20472;-72
2021/12/02 02:36:54;;;;;;;2.58;0.50;;;;;;;1.38;100.00;99730.78;1039809;28;20439;-72
2021/12/02 02:37:31;;;;;;;3.75;0.70;;;;;;;1.37;100.00;99723.91;1039770;28;20455;-72
2021/12/02 02:38:03;;;;;;;4.65;1.38;;;;;;;1.36;100.00;99727.50;1037655;28;20447;-72
2021/12/02 02:38:35;;;;;;;7.35;1.55;;;;;;;1.34;100.00;99729.47;1039456;28;21334;-72
2021/12/02 02:39:07;;;;;;;3.90;0.80;;;;;;;1.32;100.00;99731.47;1039349;28;20464;-72
2021/12/02 02:39:39;;;;;;;4.47;1.10;;;;;;;1.32;100.00;99731.47;1035359;28;20456;-72
2021/12/02 02:40:13;;;;;;;3.20;0.63;;;;;;;1.24;100.00;99723.72;1035837;28;20455;-76
2021/12/02 02:40:49;;;;;;;5.72;0.98;;;;;;;1.23;100.00;99722.09;1036077;28;20819;-72
2021/12/02 02:41:22;;;;;;;7.80;1.30;;;;;;;1.23;100.00;99728.16;1039796;28;20435;-72
2021/12/02 02:41:57;;;;;;;3.63;0.73;;;;;;;1.20;100.00;99723.28;1039743;28;20466;-72
2021/12/02 02:42:29;;;;;;;4.30;0.95;;;;;;;1.20;100.00;99735.59;1039477;28;20455;-72
2021/12/02 02:43:07;;;;;;;7.63;0.90;;;;;;;1.18;100.00;99724.47;1036368;28;21015;-75